sensor_id;sensor_type;location;lat;lon;timestamp;P1;durP1;ratioP1;P2;durP2;ratioP2
13969;SDS011;7057;49.984;8.404;2023-02-23T00:01:11;7.07;;;3.90;;
13969;SDS011;7057;49.984;8.404;2023-02-23T00:03:39;4.47;;;2.53;;
13969;SDS011;7057;49.984;8.404;2023-02-23T00:06:06;5.13;;;4.10;;
13969;SDS011;7057;49.984;8.404;2023-02-23T00:08:34;4.13;;;3.27;;
13969;SDS011;7057;49.984;8.404;2023-02-23T00:11:02;2.60;;;2.47;;
13969;SDS011;7057;49.984;8.404;2023-02-23T00:13:31;2.13;;;2.03;;
13969;SDS011;7057;49.984;8.404;2023-02-23T00:16:05;6.33;;;3.27;;
13969;SDS011;7057;49.984;8.404;2023-02-23T00:18:34;4.23;;;2.87;;
13969;SDS011;7057;49.984;8.404;2023-02-23T00:21:10;3.13;;;1.20;;
13969;SDS011;7057;49.984;8.404;2023-02-23T00:23:41;4.53;;;4.13;;
13969;SDS011;7057;49.984;8.404;2023-02-23T00:26:09;2.60;;;2.40;;
13969;SDS011;7057;49.984;8.404;2023-02-23T00:28:39;6.60;;;3.67;;
13969;SDS011;7057;49.984;8.404;2023-02-23T00:31:08;2.53;;;2.07;;
13969;SDS011;7057;49.984;8.404;2023-02-23T00:33:37;4.03;;;2.90;;
13969;SDS011;7057;49.984;8.404;2023-02-23T00:36:06;2.07;;;1.97;;
13969;SDS011;7057;49.984;8.404;2023-02-23T00:38:35;5.10;;;3.30;;
13969;SDS011;7057;49.984;8.404;2023-02-23T00:41:05;3.10;;;2.57;;
13969;SDS011;7057;49.984;8.404;2023-02-23T00:43:33;3.33;;;3.03;;
13969;SDS011;7057;49.984;8.404;2023-02-23T00:46:01;4.10;;;3.67;;
13969;SDS011;7057;49.984;8.404;2023-02-23T00:48:33;5.90;;;2.87;;
13969;SDS011;7057;49.984;8.404;2023-02-23T00:51:03;5.10;;;4.40;;
13969;SDS011;7057;49.984;8.404;2023-02-23T00:53:31;3.97;;;3.73;;
13969;SDS011;7057;49.984;8.404;2023-02-23T00:55:58;4.50;;;3.10;;
13969;SDS011;7057;49.984;8.404;2023-02-23T00:58:26;3.73;;;3.43;;
13969;SDS011;7057;49.984;8.404;2023-02-23T01:00:53;6.43;;;3.43;;
13969;SDS011;7057;49.984;8.404;2023-02-23T01:03:20;2.23;;;2.13;;
13969;SDS011;7057;49.984;8.404;2023-02-23T01:05:48;2.30;;;2.20;;
13969;SDS011;7057;49.984;8.404;2023-02-23T01:08:17;2.60;;;2.40;;
13969;SDS011;7057;49.984;8.404;2023-02-23T01:10:44;6.90;;;3.43;;
13969;SDS011;7057;49.984;8.404;2023-02-23T01:13:17;2.20;;;2.10;;
13969;SDS011;7057;49.984;8.404;2023-02-23T01:15:46;4.93;;;4.43;;
13969;SDS011;7057;49.984;8.404;2023-02-23T01:18:14;1.87;;;1.73;;
13969;SDS011;7057;49.984;8.404;2023-02-23T01:20:42;3.87;;;2.63;;
13969;SDS011;7057;49.984;8.404;2023-02-23T01:23:10;4.13;;;3.70;;
13969;SDS011;7057;49.984;8.404;2023-02-23T01:25:40;3.50;;;3.20;;
13969;SDS011;7057;49.984;8.404;2023-02-23T01:28:08;5.30;;;3.83;;
13969;SDS011;7057;49.984;8.404;2023-02-23T01:30:35;6.27;;;3.67;;
13969;SDS011;7057;49.984;8.404;2023-02-23T01:33:02;2.57;;;2.37;;
13969;SDS011;7057;49.984;8.404;2023-02-23T01:35:30;3.40;;;2.77;;
13969;SDS011;7057;49.984;8.404;2023-02-23T01:37:58;8.37;;;3.73;;
13969;SDS011;7057;49.984;8.404;2023-02-23T01:40:26;3.83;;;3.43;;
13969;SDS011;7057;49.984;8.404;2023-02-23T01:42:59;4.47;;;3.17;;
13969;SDS011;7057;49.984;8.404;2023-02-23T01:45:36;2.13;;;2.03;;
13969;SDS011;7057;49.984;8.404;2023-02-23T01:48:05;6.53;;;3.97;;
13969;SDS011;7057;49.984;8.404;2023-02-23T01:50:41;3.07;;;2.87;;
13969;SDS011;7057;49.984;8.404;2023-02-23T01:53:14;2.20;;;2.00;;
13969;SDS011;7057;49.984;8.404;2023-02-23T01:55:43;6.57;;;4.43;;
13969;SDS011;7057;49.984;8.404;2023-02-23T01:58:13;2.20;;;2.10;;
13969;SDS011;7057;49.984;8.404;2023-02-23T02:00:45;4.50;;;3.33;;
13969;SDS011;7057;49.984;8.404;2023-02-23T02:03:16;6.03;;;4.27;;
13969;SDS011;7057;49.984;8.404;2023-02-23T02:05:49;4.13;;;2.67;;
13969;SDS011;7057;49.984;8.404;2023-02-23T02:08:17;4.80;;;3.30;;
13969;SDS011;7057;49.984;8.404;2023-02-23T02:10:48;1.80;;;1.70;;
13969;SDS011;7057;49.984;8.404;2023-02-23T02:13:22;4.47;;;3.93;;
13969;SDS011;7057;49.984;8.404;2023-02-23T02:16:00;2.53;;;2.33;;
13969;SDS011;7057;49.984;8.404;2023-02-23T02:18:56;3.80;;;3.00;;
13969;SDS011;7057;49.984;8.404;2023-02-23T02:21:48;6.37;;;3.67;;
13969;SDS011;7057;49.984;8.404;2023-02-23T02:25:00;3.77;;;2.90;;
13969;SDS011;7057;49.984;8.404;2023-02-23T02:28:05;2.23;;;2.13;;
13969;SDS011;7057;49.984;8.404;2023-02-23T02:34:12;4.13;;;2.37;;
13969;SDS011;7057;49.984;8.404;2023-02-23T02:37:03;3.13;;;2.53;;
13969;SDS011;7057;49.984;8.404;2023-02-23T02:39:48;9.43;;;3.70;;
13969;SDS011;7057;49.984;8.404;2023-02-23T02:42:40;4.07;;;3.10;;
13969;SDS011;7057;49.984;8.404;2023-02-23T02:45:17;2.17;;;1.97;;
13969;SDS011;7057;49.984;8.404;2023-02-23T02:47:53;3.60;;;2.60;;
13969;SDS011;7057;49.984;8.404;2023-02-23T02:50:26;5.20;;;3.27;;
13969;SDS011;7057;49.984;8.404;2023-02-23T02:53:01;2.83;;;2.37;;
13969;SDS011;7057;49.984;8.404;2023-02-23T02:55:33;2.97;;;2.77;;
13969;SDS011;7057;49.984;8.404;2023-02-23T02:58:04;5.60;;;3.63;;
13969;SDS011;7057;49.984;8.404;2023-02-23T03:00:35;4.80;;;3.30;;
13969;SDS011;7057;49.984;8.404;2023-02-23T03:03:31;3.60;;;3.17;;
13969;SDS011;7057;49.984;8.404;2023-02-23T03:06:17;2.27;;;2.00;;
13969;SDS011;7057;49.984;8.404;2023-02-23T03:09:09;3.00;;;2.53;;
13969;SDS011;7057;49.984;8.404;2023-02-23T03:12:05;7.23;;;2.33;;
13969;SDS011;7057;49.984;8.404;2023-02-23T03:14:54;3.60;;;3.40;;
13969;SDS011;7057;49.984;8.404;2023-02-23T03:17:47;5.07;;;3.77;;
13969;SDS011;7057;49.984;8.404;2023-02-23T03:20:42;3.17;;;2.03;;
13969;SDS011;7057;49.984;8.404;2023-02-23T03:23:35;3.03;;;2.80;;
13969;SDS011;7057;49.984;8.404;2023-02-23T03:26:29;19.43;;;3.73;;
13969;SDS011;7057;49.984;8.404;2023-02-23T03:29:19;4.07;;;3.17;;
13969;SDS011;7057;49.984;8.404;2023-02-23T03:32:12;8.03;;;4.27;;
13969;SDS011;7057;49.984;8.404;2023-02-23T03:35:06;3.63;;;2.23;;
13969;SDS011;7057;49.984;8.404;2023-02-23T03:37:59;3.10;;;2.80;;
13969;SDS011;7057;49.984;8.404;2023-02-23T03:40:49;8.60;;;3.93;;
13969;SDS011;7057;49.984;8.404;2023-02-23T03:43:37;8.43;;;3.73;;
13969;SDS011;7057;49.984;8.404;2023-02-23T03:46:28;2.03;;;1.83;;
13969;SDS011;7057;49.984;8.404;2023-02-23T03:49:14;2.83;;;2.73;;
13969;SDS011;7057;49.984;8.404;2023-02-23T03:52:04;2.90;;;2.23;;
13969;SDS011;7057;49.984;8.404;2023-02-23T03:54:55;2.10;;;1.90;;
13969;SDS011;7057;49.984;8.404;2023-02-23T03:57:43;3.63;;;3.20;;
13969;SDS011;7057;49.984;8.404;2023-02-23T04:00:33;3.03;;;2.47;;
13969;SDS011;7057;49.984;8.404;2023-02-23T04:03:23;3.73;;;3.43;;
13969;SDS011;7057;49.984;8.404;2023-02-23T04:06:11;3.10;;;2.83;;
13969;SDS011;7057;49.984;8.404;2023-02-23T04:08:58;2.53;;;2.33;;
13969;SDS011;7057;49.984;8.404;2023-02-23T04:11:45;1.70;;;1.57;;
13969;SDS011;7057;49.984;8.404;2023-02-23T04:14:35;3.07;;;2.67;;
13969;SDS011;7057;49.984;8.404;2023-02-23T04:17:09;3.10;;;2.60;;
13969;SDS011;7057;49.984;8.404;2023-02-23T04:19:36;4.17;;;2.60;;
13969;SDS011;7057;49.984;8.404;2023-02-23T04:22:03;8.90;;;3.50;;
13969;SDS011;7057;49.984;8.404;2023-02-23T04:24:30;8.47;;;3.87;;
13969;SDS011;7057;49.984;8.404;2023-02-23T04:26:58;3.67;;;2.80;;
13969;SDS011;7057;49.984;8.404;2023-02-23T04:29:27;3.43;;;2.77;;
13969;SDS011;7057;49.984;8.404;2023-02-23T04:31:54;3.30;;;2.90;;
13969;SDS011;7057;49.984;8.404;2023-02-23T04:34:22;3.63;;;3.33;;
13969;SDS011;7057;49.984;8.404;2023-02-23T04:36:50;5.37;;;3.17;;
13969;SDS011;7057;49.984;8.404;2023-02-23T04:39:17;7.23;;;4.27;;
13969;SDS011;7057;49.984;8.404;2023-02-23T04:41:44;12.10;;;2.27;;
13969;SDS011;7057;49.984;8.404;2023-02-23T04:44:13;2.93;;;2.23;;
13969;SDS011;7057;49.984;8.404;2023-02-23T04:46:40;6.60;;;2.90;;
13969;SDS011;7057;49.984;8.404;2023-02-23T04:49:07;4.63;;;3.00;;
13969;SDS011;7057;49.984;8.404;2023-02-23T04:51:36;3.00;;;2.63;;
13969;SDS011;7057;49.984;8.404;2023-02-23T04:54:03;5.00;;;3.33;;
13969;SDS011;7057;49.984;8.404;2023-02-23T04:56:31;4.30;;;3.23;;
13969;SDS011;7057;49.984;8.404;2023-02-23T04:58:58;5.10;;;3.40;;
13969;SDS011;7057;49.984;8.404;2023-02-23T05:01:25;2.13;;;2.00;;
13969;SDS011;7057;49.984;8.404;2023-02-23T05:03:53;12.00;;;3.33;;
13969;SDS011;7057;49.984;8.404;2023-02-23T05:06:20;5.10;;;3.70;;
13969;SDS011;7057;49.984;8.404;2023-02-23T05:08:49;4.83;;;3.57;;
13969;SDS011;7057;49.984;8.404;2023-02-23T05:11:16;2.13;;;2.03;;
13969;SDS011;7057;49.984;8.404;2023-02-23T05:13:43;5.10;;;1.87;;
13969;SDS011;7057;49.984;8.404;2023-02-23T05:16:11;6.20;;;4.50;;
13969;SDS011;7057;49.984;8.404;2023-02-23T05:18:38;2.87;;;2.67;;
13969;SDS011;7057;49.984;8.404;2023-02-23T05:21:06;5.00;;;3.83;;
13969;SDS011;7057;49.984;8.404;2023-02-23T05:23:34;10.97;;;3.57;;
13969;SDS011;7057;49.984;8.404;2023-02-23T05:26:04;5.20;;;3.47;;
13969;SDS011;7057;49.984;8.404;2023-02-23T05:28:33;3.87;;;2.83;;
13969;SDS011;7057;49.984;8.404;2023-02-23T05:31:01;3.10;;;2.90;;
13969;SDS011;7057;49.984;8.404;2023-02-23T05:33:29;5.13;;;4.30;;
13969;SDS011;7057;49.984;8.404;2023-02-23T05:35:57;3.97;;;2.87;;
13969;SDS011;7057;49.984;8.404;2023-02-23T05:38:24;8.17;;;4.57;;
13969;SDS011;7057;49.984;8.404;2023-02-23T05:40:52;4.77;;;4.07;;
13969;SDS011;7057;49.984;8.404;2023-02-23T05:43:21;10.80;;;5.30;;
13969;SDS011;7057;49.984;8.404;2023-02-23T05:45:48;4.17;;;3.33;;
13969;SDS011;7057;49.984;8.404;2023-02-23T05:48:15;6.37;;;3.30;;
13969;SDS011;7057;49.984;8.404;2023-02-23T05:50:42;7.63;;;4.40;;
13969;SDS011;7057;49.984;8.404;2023-02-23T05:53:09;4.53;;;4.13;;
13969;SDS011;7057;49.984;8.404;2023-02-23T05:55:36;4.57;;;3.47;;
13969;SDS011;7057;49.984;8.404;2023-02-23T05:58:03;5.47;;;4.13;;
13969;SDS011;7057;49.984;8.404;2023-02-23T06:00:32;6.30;;;4.23;;
13969;SDS011;7057;49.984;8.404;2023-02-23T06:03:00;4.50;;;4.17;;
13969;SDS011;7057;49.984;8.404;2023-02-23T06:05:27;6.67;;;4.10;;
13969;SDS011;7057;49.984;8.404;2023-02-23T06:07:55;5.50;;;4.83;;
13969;SDS011;7057;49.984;8.404;2023-02-23T06:10:22;3.43;;;3.27;;
13969;SDS011;7057;49.984;8.404;2023-02-23T06:12:49;5.77;;;4.60;;
13969;SDS011;7057;49.984;8.404;2023-02-23T06:15:16;4.43;;;3.87;;
13969;SDS011;7057;49.984;8.404;2023-02-23T06:17:45;3.87;;;3.57;;
13969;SDS011;7057;49.984;8.404;2023-02-23T06:20:12;2.93;;;2.73;;
13969;SDS011;7057;49.984;8.404;2023-02-23T06:22:40;1.97;;;1.87;;
13969;SDS011;7057;49.984;8.404;2023-02-23T06:25:07;12.53;;;3.27;;
13969;SDS011;7057;49.984;8.404;2023-02-23T06:27:37;5.47;;;4.03;;
13969;SDS011;7057;49.984;8.404;2023-02-23T06:30:04;3.50;;;2.17;;
13969;SDS011;7057;49.984;8.404;2023-02-23T06:32:32;6.67;;;2.97;;
13969;SDS011;7057;49.984;8.404;2023-02-23T06:35:01;7.10;;;3.33;;
13969;SDS011;7057;49.984;8.404;2023-02-23T06:37:30;3.67;;;3.37;;
13969;SDS011;7057;49.984;8.404;2023-02-23T06:39:57;4.43;;;3.77;;
13969;SDS011;7057;49.984;8.404;2023-02-23T06:42:24;3.23;;;2.80;;
13969;SDS011;7057;49.984;8.404;2023-02-23T06:44:52;4.37;;;3.50;;
13969;SDS011;7057;49.984;8.404;2023-02-23T06:47:19;6.03;;;3.30;;
13969;SDS011;7057;49.984;8.404;2023-02-23T06:49:46;6.50;;;3.70;;
13969;SDS011;7057;49.984;8.404;2023-02-23T06:52:14;18.23;;;5.53;;
13969;SDS011;7057;49.984;8.404;2023-02-23T06:54:42;4.47;;;3.90;;
13969;SDS011;7057;49.984;8.404;2023-02-23T06:57:09;3.17;;;2.97;;
13969;SDS011;7057;49.984;8.404;2023-02-23T06:59:36;3.53;;;3.33;;
13969;SDS011;7057;49.984;8.404;2023-02-23T07:02:03;9.90;;;5.57;;
13969;SDS011;7057;49.984;8.404;2023-02-23T07:04:31;3.60;;;3.30;;
13969;SDS011;7057;49.984;8.404;2023-02-23T07:06:58;5.60;;;3.77;;
13969;SDS011;7057;49.984;8.404;2023-02-23T07:09:27;2.63;;;2.43;;
13969;SDS011;7057;49.984;8.404;2023-02-23T07:11:54;6.07;;;3.10;;
13969;SDS011;7057;49.984;8.404;2023-02-23T07:14:21;3.43;;;3.13;;
13969;SDS011;7057;49.984;8.404;2023-02-23T07:16:48;3.93;;;3.63;;
13969;SDS011;7057;49.984;8.404;2023-02-23T07:19:16;3.73;;;3.43;;
13969;SDS011;7057;49.984;8.404;2023-02-23T07:21:43;12.30;;;5.20;;
13969;SDS011;7057;49.984;8.404;2023-02-23T07:24:10;5.80;;;3.73;;
13969;SDS011;7057;49.984;8.404;2023-02-23T07:26:39;9.00;;;4.30;;
13969;SDS011;7057;49.984;8.404;2023-02-23T07:29:08;4.73;;;2.87;;
13969;SDS011;7057;49.984;8.404;2023-02-23T07:31:37;6.50;;;5.17;;
13969;SDS011;7057;49.984;8.404;2023-02-23T07:34:04;4.60;;;4.30;;
13969;SDS011;7057;49.984;8.404;2023-02-23T07:36:31;5.50;;;4.87;;
13969;SDS011;7057;49.984;8.404;2023-02-23T07:38:59;7.43;;;3.77;;
13969;SDS011;7057;49.984;8.404;2023-02-23T07:41:26;4.93;;;4.53;;
13969;SDS011;7057;49.984;8.404;2023-02-23T07:43:54;6.70;;;4.23;;
13969;SDS011;7057;49.984;8.404;2023-02-23T07:46:21;3.53;;;2.83;;
13969;SDS011;7057;49.984;8.404;2023-02-23T07:48:49;13.37;;;4.53;;
13969;SDS011;7057;49.984;8.404;2023-02-23T07:51:16;3.53;;;3.17;;
13969;SDS011;7057;49.984;8.404;2023-02-23T07:53:44;6.57;;;5.07;;
13969;SDS011;7057;49.984;8.404;2023-02-23T07:56:11;5.03;;;4.47;;
13969;SDS011;7057;49.984;8.404;2023-02-23T07:58:39;11.97;;;4.03;;
13969;SDS011;7057;49.984;8.404;2023-02-23T08:01:09;3.37;;;3.00;;
13969;SDS011;7057;49.984;8.404;2023-02-23T08:03:37;2.60;;;2.50;;
13969;SDS011;7057;49.984;8.404;2023-02-23T08:06:05;4.97;;;4.10;;
13969;SDS011;7057;49.984;8.404;2023-02-23T08:08:32;6.30;;;4.30;;
13969;SDS011;7057;49.984;8.404;2023-02-23T08:11:00;3.57;;;3.37;;
13969;SDS011;7057;49.984;8.404;2023-02-23T08:13:29;5.00;;;4.30;;
13969;SDS011;7057;49.984;8.404;2023-02-23T08:15:57;3.30;;;2.90;;
13969;SDS011;7057;49.984;8.404;2023-02-23T08:18:25;8.43;;;4.20;;
13969;SDS011;7057;49.984;8.404;2023-02-23T08:20:56;4.93;;;4.53;;
13969;SDS011;7057;49.984;8.404;2023-02-23T08:23:24;4.13;;;2.93;;
13969;SDS011;7057;49.984;8.404;2023-02-23T08:25:51;6.20;;;5.60;;
13969;SDS011;7057;49.984;8.404;2023-02-23T08:28:19;5.53;;;3.27;;
13969;SDS011;7057;49.984;8.404;2023-02-23T08:30:47;5.07;;;4.57;;
13969;SDS011;7057;49.984;8.404;2023-02-23T08:33:14;7.73;;;4.77;;
13969;SDS011;7057;49.984;8.404;2023-02-23T08:35:42;6.87;;;3.77;;
13969;SDS011;7057;49.984;8.404;2023-02-23T08:38:10;10.33;;;4.77;;
13969;SDS011;7057;49.984;8.404;2023-02-23T08:40:37;5.83;;;5.07;;
13969;SDS011;7057;49.984;8.404;2023-02-23T08:43:04;10.03;;;4.20;;
13969;SDS011;7057;49.984;8.404;2023-02-23T08:45:31;5.03;;;4.07;;
13969;SDS011;7057;49.984;8.404;2023-02-23T08:47:58;7.50;;;3.53;;
13969;SDS011;7057;49.984;8.404;2023-02-23T08:50:26;6.83;;;3.90;;
13969;SDS011;7057;49.984;8.404;2023-02-23T08:52:54;16.33;;;3.20;;
13969;SDS011;7057;49.984;8.404;2023-02-23T08:55:21;10.27;;;5.30;;
13969;SDS011;7057;49.984;8.404;2023-02-23T08:57:48;9.40;;;5.90;;
13969;SDS011;7057;49.984;8.404;2023-02-23T09:00:16;7.93;;;4.50;;
13969;SDS011;7057;49.984;8.404;2023-02-23T09:02:44;3.50;;;2.80;;
13969;SDS011;7057;49.984;8.404;2023-02-23T09:05:12;2.87;;;2.27;;
13969;SDS011;7057;49.984;8.404;2023-02-23T09:07:40;3.53;;;3.30;;
13969;SDS011;7057;49.984;8.404;2023-02-23T09:10:12;5.30;;;3.37;;
13969;SDS011;7057;49.984;8.404;2023-02-23T09:12:40;8.63;;;6.23;;
13969;SDS011;7057;49.984;8.404;2023-02-23T09:15:07;8.97;;;4.27;;
13969;SDS011;7057;49.984;8.404;2023-02-23T09:17:36;9.83;;;3.97;;
13969;SDS011;7057;49.984;8.404;2023-02-23T09:20:03;4.97;;;4.47;;
13969;SDS011;7057;49.984;8.404;2023-02-23T09:22:32;2.97;;;2.73;;
13969;SDS011;7057;49.984;8.404;2023-02-23T09:24:59;5.33;;;2.60;;
13969;SDS011;7057;49.984;8.404;2023-02-23T09:27:27;7.10;;;3.40;;
13969;SDS011;7057;49.984;8.404;2023-02-23T09:29:55;9.27;;;4.57;;
13969;SDS011;7057;49.984;8.404;2023-02-23T09:32:22;3.07;;;2.57;;
13969;SDS011;7057;49.984;8.404;2023-02-23T09:34:49;7.60;;;4.43;;
13969;SDS011;7057;49.984;8.404;2023-02-23T09:37:16;3.17;;;2.90;;
13969;SDS011;7057;49.984;8.404;2023-02-23T09:39:44;5.63;;;3.90;;
13969;SDS011;7057;49.984;8.404;2023-02-23T09:42:15;5.03;;;3.67;;
13969;SDS011;7057;49.984;8.404;2023-02-23T09:45:01;9.23;;;4.50;;
13969;SDS011;7057;49.984;8.404;2023-02-23T09:47:44;3.97;;;3.40;;
13969;SDS011;7057;49.984;8.404;2023-02-23T09:50:25;7.87;;;4.53;;
13969;SDS011;7057;49.984;8.404;2023-02-23T09:52:56;2.50;;;2.30;;
13969;SDS011;7057;49.984;8.404;2023-02-23T09:55:28;4.30;;;3.47;;
13969;SDS011;7057;49.984;8.404;2023-02-23T09:57:56;3.73;;;2.73;;
13969;SDS011;7057;49.984;8.404;2023-02-23T10:00:29;3.43;;;3.13;;
13969;SDS011;7057;49.984;8.404;2023-02-23T10:03:05;3.27;;;2.97;;
13969;SDS011;7057;49.984;8.404;2023-02-23T10:05:44;2.80;;;2.57;;
13969;SDS011;7057;49.984;8.404;2023-02-23T10:08:18;4.70;;;3.97;;
13969;SDS011;7057;49.984;8.404;2023-02-23T10:11:07;3.90;;;3.60;;
13969;SDS011;7057;49.984;8.404;2023-02-23T10:13:45;3.67;;;2.50;;
13969;SDS011;7057;49.984;8.404;2023-02-23T10:16:23;2.93;;;2.63;;
13969;SDS011;7057;49.984;8.404;2023-02-23T10:19:00;3.13;;;2.93;;
13969;SDS011;7057;49.984;8.404;2023-02-23T10:21:32;2.30;;;2.17;;
13969;SDS011;7057;49.984;8.404;2023-02-23T10:24:04;2.20;;;2.10;;
13969;SDS011;7057;49.984;8.404;2023-02-23T10:26:38;4.33;;;3.93;;
13969;SDS011;7057;49.984;8.404;2023-02-23T10:29:14;2.67;;;2.40;;
13969;SDS011;7057;49.984;8.404;2023-02-23T10:31:50;3.00;;;1.93;;
13969;SDS011;7057;49.984;8.404;2023-02-23T10:34:21;2.90;;;2.33;;
13969;SDS011;7057;49.984;8.404;2023-02-23T10:36:51;5.33;;;3.00;;
13969;SDS011;7057;49.984;8.404;2023-02-23T10:39:23;5.80;;;2.47;;
13969;SDS011;7057;49.984;8.404;2023-02-23T10:41:50;4.10;;;2.73;;
13969;SDS011;7057;49.984;8.404;2023-02-23T10:44:20;2.37;;;1.83;;
13969;SDS011;7057;49.984;8.404;2023-02-23T10:46:51;2.43;;;2.23;;
13969;SDS011;7057;49.984;8.404;2023-02-23T10:49:24;3.53;;;2.10;;
13969;SDS011;7057;49.984;8.404;2023-02-23T10:52:01;4.47;;;2.73;;
13969;SDS011;7057;49.984;8.404;2023-02-23T10:54:38;0.70;;;0.70;;
13969;SDS011;7057;49.984;8.404;2023-02-23T10:57:10;1.40;;;1.30;;
13969;SDS011;7057;49.984;8.404;2023-02-23T10:59:41;2.33;;;2.17;;
13969;SDS011;7057;49.984;8.404;2023-02-23T11:02:26;2.97;;;2.77;;
13969;SDS011;7057;49.984;8.404;2023-02-23T11:04:57;4.13;;;2.40;;
13969;SDS011;7057;49.984;8.404;2023-02-23T11:07:26;3.67;;;3.37;;
13969;SDS011;7057;49.984;8.404;2023-02-23T11:09:55;1.27;;;1.13;;
13969;SDS011;7057;49.984;8.404;2023-02-23T11:12:24;1.10;;;1.10;;
13969;SDS011;7057;49.984;8.404;2023-02-23T11:14:55;3.75;;;2.13;;
13969;SDS011;7057;49.984;8.404;2023-02-23T11:17:28;2.37;;;2.27;;
13969;SDS011;7057;49.984;8.404;2023-02-23T11:19:58;1.30;;;1.30;;
13969;SDS011;7057;49.984;8.404;2023-02-23T11:22:29;3.80;;;2.35;;
13969;SDS011;7057;49.984;8.404;2023-02-23T11:24:59;8.13;;;2.57;;
13969;SDS011;7057;49.984;8.404;2023-02-23T11:27:28;2.17;;;1.43;;
13969;SDS011;7057;49.984;8.404;2023-02-23T11:29:55;1.13;;;1.13;;
13969;SDS011;7057;49.984;8.404;2023-02-23T11:32:25;0.70;;;0.70;;
13969;SDS011;7057;49.984;8.404;2023-02-23T11:35:13;1.50;;;1.17;;
13969;SDS011;7057;49.984;8.404;2023-02-23T11:37:52;3.50;;;1.80;;
13969;SDS011;7057;49.984;8.404;2023-02-23T11:40:21;1.33;;;1.30;;
13969;SDS011;7057;49.984;8.404;2023-02-23T11:42:51;0.80;;;0.80;;
13969;SDS011;7057;49.984;8.404;2023-02-23T11:45:20;2.13;;;2.00;;
13969;SDS011;7057;49.984;8.404;2023-02-23T11:47:50;5.87;;;1.60;;
13969;SDS011;7057;49.984;8.404;2023-02-23T11:50:20;1.57;;;1.50;;
13969;SDS011;7057;49.984;8.404;2023-02-23T11:52:55;1.47;;;1.37;;
13969;SDS011;7057;49.984;8.404;2023-02-23T11:55:27;1.37;;;1.33;;
13969;SDS011;7057;49.984;8.404;2023-02-23T11:58:06;0.87;;;0.87;;
13969;SDS011;7057;49.984;8.404;2023-02-23T12:00:35;0.60;;;0.60;;
13969;SDS011;7057;49.984;8.404;2023-02-23T12:03:04;0.67;;;0.67;;
13969;SDS011;7057;49.984;8.404;2023-02-23T12:05:32;0.93;;;0.93;;
13969;SDS011;7057;49.984;8.404;2023-02-23T12:08:01;1.57;;;1.47;;
13969;SDS011;7057;49.984;8.404;2023-02-23T12:10:33;1.00;;;1.00;;
13969;SDS011;7057;49.984;8.404;2023-02-23T12:13:08;0.60;;;0.60;;
13969;SDS011;7057;49.984;8.404;2023-02-23T12:15:43;1.57;;;1.53;;
13969;SDS011;7057;49.984;8.404;2023-02-23T12:18:18;1.30;;;1.30;;
13969;SDS011;7057;49.984;8.404;2023-02-23T12:20:59;1.50;;;1.37;;
13969;SDS011;7057;49.984;8.404;2023-02-23T12:23:39;1.60;;;0.83;;
13969;SDS011;7057;49.984;8.404;2023-02-23T12:26:10;0.60;;;0.60;;
13969;SDS011;7057;49.984;8.404;2023-02-23T12:28:42;4.30;;;3.37;;
13969;SDS011;7057;49.984;8.404;2023-02-23T12:31:17;1.53;;;1.43;;
13969;SDS011;7057;49.984;8.404;2023-02-23T12:33:52;1.83;;;1.73;;
13969;SDS011;7057;49.984;8.404;2023-02-23T12:36:24;1.07;;;1.03;;
13969;SDS011;7057;49.984;8.404;2023-02-23T12:38:58;1.80;;;1.70;;
13969;SDS011;7057;49.984;8.404;2023-02-23T12:41:32;1.67;;;1.57;;
13969;SDS011;7057;49.984;8.404;2023-02-23T12:44:02;1.00;;;1.00;;
13969;SDS011;7057;49.984;8.404;2023-02-23T12:46:38;1.03;;;1.03;;
13969;SDS011;7057;49.984;8.404;2023-02-23T12:49:15;2.07;;;1.63;;
13969;SDS011;7057;49.984;8.404;2023-02-23T12:51:50;1.00;;;1.00;;
13969;SDS011;7057;49.984;8.404;2023-02-23T12:54:23;1.37;;;1.27;;
13969;SDS011;7057;49.984;8.404;2023-02-23T12:56:56;5.40;;;0.97;;
13969;SDS011;7057;49.984;8.404;2023-02-23T12:59:46;1.87;;;1.47;;
13969;SDS011;7057;49.984;8.404;2023-02-23T13:02:37;1.13;;;1.13;;
13969;SDS011;7057;49.984;8.404;2023-02-23T13:05:11;1.30;;;1.17;;
13969;SDS011;7057;49.984;8.404;2023-02-23T13:07:49;1.40;;;1.40;;
13969;SDS011;7057;49.984;8.404;2023-02-23T13:10:26;0.70;;;0.70;;
13969;SDS011;7057;49.984;8.404;2023-02-23T13:13:06;0.97;;;0.97;;
13969;SDS011;7057;49.984;8.404;2023-02-23T13:15:45;1.63;;;1.30;;
13969;SDS011;7057;49.984;8.404;2023-02-23T13:18:23;1.30;;;1.20;;
13969;SDS011;7057;49.984;8.404;2023-02-23T13:20:58;1.27;;;1.27;;
13969;SDS011;7057;49.984;8.404;2023-02-23T13:23:33;1.03;;;1.03;;
13969;SDS011;7057;49.984;8.404;2023-02-23T13:26:07;0.87;;;0.87;;
13969;SDS011;7057;49.984;8.404;2023-02-23T13:28:47;1.80;;;1.00;;
13969;SDS011;7057;49.984;8.404;2023-02-23T13:31:19;1.37;;;1.30;;
13969;SDS011;7057;49.984;8.404;2023-02-23T13:33:50;3.47;;;1.17;;
13969;SDS011;7057;49.984;8.404;2023-02-23T13:36:19;1.27;;;1.17;;
13969;SDS011;7057;49.984;8.404;2023-02-23T13:38:52;1.57;;;1.37;;
13969;SDS011;7057;49.984;8.404;2023-02-23T13:41:48;0.50;;;0.50;;
13969;SDS011;7057;49.984;8.404;2023-02-23T13:44:22;1.73;;;1.70;;
13969;SDS011;7057;49.984;8.404;2023-02-23T13:46:59;0.97;;;0.97;;
13969;SDS011;7057;49.984;8.404;2023-02-23T13:49:34;1.60;;;1.50;;
13969;SDS011;7057;49.984;8.404;2023-02-23T13:52:09;1.13;;;1.13;;
13969;SDS011;7057;49.984;8.404;2023-02-23T13:54:50;0.50;;;0.50;;
13969;SDS011;7057;49.984;8.404;2023-02-23T13:57:20;0.60;;;0.60;;
13969;SDS011;7057;49.984;8.404;2023-02-23T13:59:49;1.37;;;1.03;;
13969;SDS011;7057;49.984;8.404;2023-02-23T14:02:33;2.77;;;1.60;;
13969;SDS011;7057;49.984;8.404;2023-02-23T14:05:04;1.17;;;1.10;;
13969;SDS011;7057;49.984;8.404;2023-02-23T14:07:43;2.27;;;1.17;;
13969;SDS011;7057;49.984;8.404;2023-02-23T14:10:15;3.63;;;2.13;;
13969;SDS011;7057;49.984;8.404;2023-02-23T14:16:06;1.23;;;1.23;;
13969;SDS011;7057;49.984;8.404;2023-02-23T14:18:48;1.90;;;0.80;;
13969;SDS011;7057;49.984;8.404;2023-02-23T14:21:27;2.43;;;1.23;;
13969;SDS011;7057;49.984;8.404;2023-02-23T14:24:03;4.13;;;2.03;;
13969;SDS011;7057;49.984;8.404;2023-02-23T14:26:43;1.23;;;1.13;;
13969;SDS011;7057;49.984;8.404;2023-02-23T14:29:36;3.43;;;1.00;;
13969;SDS011;7057;49.984;8.404;2023-02-23T14:34:55;0.53;;;0.53;;
13969;SDS011;7057;49.984;8.404;2023-02-23T14:37:25;1.60;;;1.50;;
13969;SDS011;7057;49.984;8.404;2023-02-23T14:39:59;0.87;;;0.87;;
13969;SDS011;7057;49.984;8.404;2023-02-23T14:42:30;0.87;;;0.87;;
13969;SDS011;7057;49.984;8.404;2023-02-23T14:45:02;0.33;;;0.33;;
13969;SDS011;7057;49.984;8.404;2023-02-23T14:47:39;1.70;;;1.60;;
13969;SDS011;7057;49.984;8.404;2023-02-23T14:50:09;1.07;;;0.97;;
13969;SDS011;7057;49.984;8.404;2023-02-23T14:52:41;1.50;;;1.40;;
13969;SDS011;7057;49.984;8.404;2023-02-23T14:55:15;3.03;;;1.97;;
13969;SDS011;7057;49.984;8.404;2023-02-23T14:57:47;0.80;;;0.80;;
13969;SDS011;7057;49.984;8.404;2023-02-23T15:00:17;1.03;;;1.00;;
13969;SDS011;7057;49.984;8.404;2023-02-23T15:02:55;0.87;;;0.87;;
13969;SDS011;7057;49.984;8.404;2023-02-23T15:05:24;1.77;;;1.67;;
13969;SDS011;7057;49.984;8.404;2023-02-23T15:07:55;2.13;;;1.63;;
13969;SDS011;7057;49.984;8.404;2023-02-23T15:10:27;0.87;;;0.87;;
13969;SDS011;7057;49.984;8.404;2023-02-23T15:12:57;0.47;;;0.47;;
13969;SDS011;7057;49.984;8.404;2023-02-23T15:15:25;1.63;;;1.03;;
13969;SDS011;7057;49.984;8.404;2023-02-23T15:17:56;5.63;;;1.93;;
13969;SDS011;7057;49.984;8.404;2023-02-23T15:20:26;1.97;;;1.80;;
13969;SDS011;7057;49.984;8.404;2023-02-23T15:22:58;4.93;;;1.90;;
13969;SDS011;7057;49.984;8.404;2023-02-23T15:25:33;3.07;;;1.83;;
13969;SDS011;7057;49.984;8.404;2023-02-23T15:28:21;1.10;;;1.10;;
13969;SDS011;7057;49.984;8.404;2023-02-23T15:30:51;1.53;;;1.43;;
13969;SDS011;7057;49.984;8.404;2023-02-23T15:33:19;2.63;;;2.43;;
13969;SDS011;7057;49.984;8.404;2023-02-23T15:35:53;2.87;;;1.50;;
13969;SDS011;7057;49.984;8.404;2023-02-23T15:38:25;2.20;;;1.73;;
13969;SDS011;7057;49.984;8.404;2023-02-23T15:40:59;0.93;;;0.93;;
13969;SDS011;7057;49.984;8.404;2023-02-23T15:43:30;1.90;;;1.80;;